sensor_id;sensor_type;location;lat;lon;timestamp;pressure;altitude;pressure_sealevel;temperature;humidity
59104;BME280;51449;51.676;5.812;2023-02-12T00:01:12;103770.16;;;9.20;74.75
59104;BME280;51449;51.676;5.812;2023-02-12T00:03:35;103767.63;;;9.18;74.22
59104;BME280;51449;51.676;5.812;2023-02-12T00:06:00;103768.16;;;9.15;74.29
59104;BME280;51449;51.676;5.812;2023-02-12T00:08:22;103768.41;;;9.14;73.87
59104;BME280;51449;51.676;5.812;2023-02-12T00:10:44;103771.41;;;9.12;74.04
59104;BME280;51449;51.676;5.812;2023-02-12T00:13:06;103770.31;;;9.13;74.16
59104;BME280;51449;51.676;5.812;2023-02-12T00:15:27;103769.50;;;9.13;74.02
59104;BME280;51449;51.676;5.812;2023-02-12T00:17:49;103772.81;;;9.15;74.08
59104;BME280;51449;51.676;5.812;2023-02-12T00:20:11;103775.56;;;9.15;74.07
59104;BME280;51449;51.676;5.812;2023-02-12T00:22:33;103777.22;;;9.16;74.01
59104;BME280;51449;51.676;5.812;2023-02-12T00:24:55;103783.81;;;9.15;73.55
59104;BME280;51449;51.676;5.812;2023-02-12T00:27:16;103776.41;;;9.15;73.72
59104;BME280;51449;51.676;5.812;2023-02-12T00:29:38;103785.47;;;9.16;73.70
59104;BME280;51449;51.676;5.812;2023-02-12T00:32:00;103785.47;;;9.16;73.54
59104;BME280;51449;51.676;5.812;2023-02-12T00:34:22;103790.66;;;9.12;73.35
59104;BME280;51449;51.676;5.812;2023-02-12T00:36:43;103784.06;;;9.13;73.02
59104;BME280;51449;51.676;5.812;2023-02-12T00:39:05;103777.75;;;9.13;73.02
59104;BME280;51449;51.676;5.812;2023-02-12T00:41:27;103773.88;;;9.14;73.15
59104;BME280;51449;51.676;5.812;2023-02-12T00:43:49;103771.97;;;9.14;73.27
59104;BME280;51449;51.676;5.812;2023-02-12T00:46:11;103771.97;;;9.14;72.99
59104;BME280;51449;51.676;5.812;2023-02-12T00:48:34;103775.81;;;9.13;72.79
59104;BME280;51449;51.676;5.812;2023-02-12T00:50:57;103769.50;;;9.13;72.65
59104;BME280;51449;51.676;5.812;2023-02-12T00:53:21;103765.31;;;9.10;73.11
59104;BME280;51449;51.676;5.812;2023-02-12T00:55:43;103764.97;;;9.07;72.28
59104;BME280;51449;51.676;5.812;2023-02-12T00:58:06;103768.25;;;9.04;72.24
59104;BME280;51449;51.676;5.812;2023-02-12T01:00:28;103772.91;;;9.03;72.50
59104;BME280;51449;51.676;5.812;2023-02-12T01:02:50;103773.22;;;9.07;72.52
59104;BME280;51449;51.676;5.812;2023-02-12T01:05:12;103778.50;;;9.08;72.37
59104;BME280;51449;51.676;5.812;2023-02-12T01:07:34;103766.38;;;9.09;72.46
59104;BME280;51449;51.676;5.812;2023-02-12T01:09:56;103765.56;;;9.09;72.34
59104;BME280;51449;51.676;5.812;2023-02-12T01:12:18;103766.38;;;9.09;72.13
59104;BME280;51449;51.676;5.812;2023-02-12T01:14:40;103772.75;;;9.10;72.21
59104;BME280;51449;51.676;5.812;2023-02-12T01:17:01;103766.97;;;9.11;72.58
59104;BME280;51449;51.676;5.812;2023-02-12T01:19:23;103771.66;;;9.11;72.46
59104;BME280;51449;51.676;5.812;2023-02-12T01:21:45;103772.25;;;9.13;72.62
59104;BME280;51449;51.676;5.812;2023-02-12T01:24:07;103776.66;;;9.14;72.85
59104;BME280;51449;51.676;5.812;2023-02-12T01:26:30;103780.50;;;9.13;72.57
59104;BME280;51449;51.676;5.812;2023-02-12T01:28:54;103773.31;;;9.12;72.68
59104;BME280;51449;51.676;5.812;2023-02-12T01:31:24;103777.16;;;9.11;72.51
59104;BME280;51449;51.676;5.812;2023-02-12T01:33:49;103774.91;;;9.08;72.46
59104;BME280;51449;51.676;5.812;2023-02-12T01:36:12;103763.56;;;9.04;72.41
59104;BME280;51449;51.676;5.812;2023-02-12T01:38:34;103771.81;;;9.04;72.58
59104;BME280;51449;51.676;5.812;2023-02-12T01:41:17;103761.91;;;9.03;72.85
59104;BME280;51449;51.676;5.812;2023-02-12T01:43:41;103766.00;;;9.00;72.72
59104;BME280;51449;51.676;5.812;2023-02-12T01:46:04;103769.81;;;8.99;72.54
59104;BME280;51449;51.676;5.812;2023-02-12T01:48:31;103773.41;;;9.00;72.59
59104;BME280;51449;51.676;5.812;2023-02-12T01:50:58;103774.25;;;9.00;72.88
59104;BME280;51449;51.676;5.812;2023-02-12T01:53:24;103775.91;;;9.02;72.53
59104;BME280;51449;51.676;5.812;2023-02-12T01:55:54;103762.41;;;9.00;72.40
59104;BME280;51449;51.676;5.812;2023-02-12T01:58:19;103767.06;;;8.99;72.39
59104;BME280;51449;51.676;5.812;2023-02-12T02:00:42;103763.50;;;8.99;72.89
59104;BME280;51449;51.676;5.812;2023-02-12T02:03:04;103766.25;;;8.99;72.83
59104;BME280;51449;51.676;5.812;2023-02-12T02:05:34;103768.16;;;8.98;72.59
59104;BME280;51449;51.676;5.812;2023-02-12T02:08:03;103766.50;;;8.97;72.67
59104;BME280;51449;51.676;5.812;2023-02-12T02:10:25;103768.97;;;8.99;72.50
59104;BME280;51449;51.676;5.812;2023-02-12T02:12:47;103772.31;;;9.01;72.87
59104;BME280;51449;51.676;5.812;2023-02-12T02:15:29;103770.41;;;9.02;72.83
59104;BME280;51449;51.676;5.812;2023-02-12T02:18:00;103766.00;;;9.00;72.72
59104;BME280;51449;51.676;5.812;2023-02-12T02:26:21;103758.25;;;8.97;72.79
59104;BME280;51449;51.676;5.812;2023-02-12T02:37:00;103742.66;;;8.86;72.35
59104;BME280;51449;51.676;5.812;2023-02-12T02:39:55;103744.50;;;8.81;72.78
59104;BME280;51449;51.676;5.812;2023-02-12T02:42:55;103745.84;;;8.78;72.20
59104;BME280;51449;51.676;5.812;2023-02-12T02:45:29;103746.41;;;8.80;72.44
59104;BME280;51449;51.676;5.812;2023-02-12T02:48:09;103738.50;;;8.84;72.59
59104;BME280;51449;51.676;5.812;2023-02-12T02:50:41;103738.25;;;8.85;72.57
59104;BME280;51449;51.676;5.812;2023-02-12T02:53:11;103735.50;;;8.85;72.27
59104;BME280;51449;51.676;5.812;2023-02-12T02:55:42;103740.16;;;8.85;72.02
59104;BME280;51449;51.676;5.812;2023-02-12T02:58:22;103731.09;;;8.84;72.18
59104;BME280;51449;51.676;5.812;2023-02-12T03:01:14;103733.00;;;8.84;71.90
59104;BME280;51449;51.676;5.812;2023-02-12T03:04:47;103728.84;;;8.81;72.16
59104;BME280;51449;51.676;5.812;2023-02-12T03:06:54;103740.06;;;8.79;72.25
59104;BME280;51449;51.676;5.812;2023-02-12T03:09:31;103732.66;;;8.80;72.25
59104;BME280;51449;51.676;5.812;2023-02-12T03:12:05;103737.59;;;8.78;72.24
59104;BME280;51449;51.676;5.812;2023-02-12T03:14:37;103732.66;;;8.80;71.98
59104;BME280;51449;51.676;5.812;2023-02-12T03:17:06;103736.00;;;8.82;72.28
59104;BME280;51449;51.676;5.812;2023-02-12T03:19:34;103732.19;;;8.83;72.15
59104;BME280;51449;51.676;5.812;2023-02-12T03:22:05;103738.75;;;8.82;72.13
59104;BME280;51449;51.676;5.812;2023-02-12T03:24:44;103740.66;;;8.82;72.01
59104;BME280;51449;51.676;5.812;2023-02-12T03:27:25;103739.00;;;8.81;71.85
59104;BME280;51449;51.676;5.812;2023-02-12T03:29:52;103735.69;;;8.78;72.18
59104;BME280;51449;51.676;5.812;2023-02-12T03:35:32;103735.69;;;8.78;72.08
59104;BME280;51449;51.676;5.812;2023-02-12T03:38:09;103744.75;;;8.79;71.89
59104;BME280;51449;51.676;5.812;2023-02-12T03:40:49;103750.47;;;8.77;72.06
59104;BME280;51449;51.676;5.812;2023-02-12T03:46:34;103747.19;;;8.75;71.77
59104;BME280;51449;51.676;5.812;2023-02-12T03:49:25;103746.91;;;8.77;72.03
59104;BME280;51449;51.676;5.812;2023-02-12T03:51:51;103748.00;;;8.76;72.09
59104;BME280;51449;51.676;5.812;2023-02-12T03:54:17;103738.06;;;8.75;71.84
59104;BME280;51449;51.676;5.812;2023-02-12T03:56:45;103732.56;;;8.75;72.09
59104;BME280;51449;51.676;5.812;2023-02-12T03:59:12;103732.56;;;8.75;71.91
59104;BME280;51449;51.676;5.812;2023-02-12T04:01:34;103734.72;;;8.73;72.11
59104;BME280;51449;51.676;5.812;2023-02-12T04:03:58;103733.66;;;8.74;71.76
59104;BME280;51449;51.676;5.812;2023-02-12T04:06:25;103738.34;;;8.73;71.70
59104;BME280;51449;51.676;5.812;2023-02-12T04:08:49;103749.06;;;8.75;71.97
59104;BME280;51449;51.676;5.812;2023-02-12T04:11:21;103753.22;;;8.77;71.90
59104;BME280;51449;51.676;5.812;2023-02-12T04:14:07;103749.41;;;8.78;71.74
59104;BME280;51449;51.676;5.812;2023-02-12T04:16:53;103752.75;;;8.81;71.98
59104;BME280;51449;51.676;5.812;2023-02-12T04:20:15;103745.56;;;8.79;71.81
59104;BME280;51449;51.676;5.812;2023-02-12T04:25:16;103759.91;;;8.82;71.83
59104;BME280;51449;51.676;5.812;2023-02-12T04:30:36;103767.06;;;8.83;72.13
59104;BME280;51449;51.676;5.812;2023-02-12T04:33:20;103768.16;;;8.82;72.12
59104;BME280;51449;51.676;5.812;2023-02-12T04:35:50;103767.91;;;8.83;72.04
59104;BME280;51449;51.676;5.812;2023-02-12T04:38:31;103775.06;;;8.84;71.84
59104;BME280;51449;51.676;5.812;2023-02-12T04:40:57;103780.34;;;8.86;72.17
59104;BME280;51449;51.676;5.812;2023-02-12T04:43:27;103776.25;;;8.88;71.67
59104;BME280;51449;51.676;5.812;2023-02-12T04:45:57;103785.09;;;8.90;71.88
59104;BME280;51449;51.676;5.812;2023-02-12T04:48:19;103786.97;;;8.90;71.84
59104;BME280;51449;51.676;5.812;2023-02-12T04:50:42;103784.81;;;8.92;71.75
59104;BME280;51449;51.676;5.812;2023-02-12T04:53:05;103787.56;;;8.92;71.70
59104;BME280;51449;51.676;5.812;2023-02-12T04:55:26;103784.81;;;8.92;71.89
59104;BME280;51449;51.676;5.812;2023-02-12T04:57:48;103782.06;;;8.92;71.85
59104;BME280;51449;51.676;5.812;2023-02-12T05:00:13;103780.16;;;8.92;71.68
59104;BME280;51449;51.676;5.812;2023-02-12T05:02:35;103778.50;;;8.91;71.51
59104;BME280;51449;51.676;5.812;2023-02-12T05:04:57;103780.41;;;8.91;71.82
59104;BME280;51449;51.676;5.812;2023-02-12T05:07:19;103775.75;;;8.91;71.52
59104;BME280;51449;51.676;5.812;2023-02-12T05:09:41;103775.75;;;8.91;71.71
59104;BME280;51449;51.676;5.812;2023-02-12T05:12:02;103789.72;;;8.90;71.78
59104;BME280;51449;51.676;5.812;2023-02-12T05:14:24;103781.47;;;8.90;71.40
59104;BME280;51449;51.676;5.812;2023-02-12T05:16:46;103769.94;;;8.88;71.84
59104;BME280;51449;51.676;5.812;2023-02-12T05:19:07;103787.47;;;8.87;71.78
59104;BME280;51449;51.676;5.812;2023-02-12T05:21:30;103787.47;;;8.87;71.72
59104;BME280;51449;51.676;5.812;2023-02-12T05:23:51;103783.09;;;8.86;71.74
59104;BME280;51449;51.676;5.812;2023-02-12T05:26:17;103785.84;;;8.86;71.69
59104;BME280;51449;51.676;5.812;2023-02-12T05:28:41;103789.66;;;8.85;71.74
59104;BME280;51449;51.676;5.812;2023-02-12T05:31:06;103793.50;;;8.84;71.68
59104;BME280;51449;51.676;5.812;2023-02-12T05:33:29;103792.31;;;8.79;71.71
59104;BME280;51449;51.676;5.812;2023-02-12T05:35:50;103787.06;;;8.78;71.82
59104;BME280;51449;51.676;5.812;2023-02-12T05:38:13;103796.97;;;8.79;71.87
59104;BME280;51449;51.676;5.812;2023-02-12T05:40:34;103792.56;;;8.78;71.59
59104;BME280;51449;51.676;5.812;2023-02-12T05:42:56;103793.63;;;8.77;72.00
59104;BME280;51449;51.676;5.812;2023-02-12T05:45:18;103791.16;;;8.75;71.75
59104;BME280;51449;51.676;5.812;2023-02-12T05:47:39;103794.97;;;8.74;71.94
59104;BME280;51449;51.676;5.812;2023-02-12T05:50:01;103799.66;;;8.74;71.96
59104;BME280;51449;51.676;5.812;2023-02-12T05:52:23;103802.41;;;8.74;71.71
59104;BME280;51449;51.676;5.812;2023-02-12T05:54:48;103792.47;;;8.73;71.64
59104;BME280;51449;51.676;5.812;2023-02-12T05:57:10;103797.63;;;8.69;71.91
59104;BME280;51449;51.676;5.812;2023-02-12T05:59:32;103803.38;;;8.68;71.76
59104;BME280;51449;51.676;5.812;2023-02-12T06:01:54;103793.47;;;8.67;71.71
59104;BME280;51449;51.676;5.812;2023-02-12T06:04:24;103801.94;;;8.65;71.64
59104;BME280;51449;51.676;5.812;2023-02-12T06:06:49;103797.78;;;8.63;72.08
59104;BME280;51449;51.676;5.812;2023-02-12T06:09:13;103806.84;;;8.63;71.71
59104;BME280;51449;51.676;5.812;2023-02-12T06:11:35;103802.44;;;8.62;72.21
59104;BME280;51449;51.676;5.812;2023-02-12T06:13:57;103807.13;;;8.62;71.90
59104;BME280;51449;51.676;5.812;2023-02-12T06:16:21;103801.63;;;8.62;71.98
59104;BME280;51449;51.676;5.812;2023-02-12T06:18:44;103805.19;;;8.62;72.24
59104;BME280;51449;51.676;5.812;2023-02-12T06:21:06;103804.59;;;8.60;72.02
59104;BME280;51449;51.676;5.812;2023-02-12T06:23:27;103799.38;;;8.59;72.16
59104;BME280;51449;51.676;5.812;2023-02-12T06:25:53;103802.13;;;8.59;72.18
59104;BME280;51449;51.676;5.812;2023-02-12T06:28:16;103803.19;;;8.57;72.09
59104;BME280;51449;51.676;5.812;2023-02-12T06:30:38;103809.50;;;8.58;72.25
59104;BME280;51449;51.676;5.812;2023-02-12T06:33:00;103811.19;;;8.59;72.57
59104;BME280;51449;51.676;5.812;2023-02-12T06:35:22;103813.69;;;8.61;72.52
59104;BME280;51449;51.676;5.812;2023-02-12T06:37:43;103814.53;;;8.61;72.44
59104;BME280;51449;51.676;5.812;2023-02-12T06:40:06;103803.78;;;8.60;72.09
59104;BME280;51449;51.676;5.812;2023-02-12T06:42:28;103805.13;;;8.57;72.48
59104;BME280;51449;51.676;5.812;2023-02-12T06:44:49;103809.19;;;8.54;72.61
59104;BME280;51449;51.676;5.812;2023-02-12T06:47:13;103810.28;;;8.53;72.36
59104;BME280;51449;51.676;5.812;2023-02-12T06:49:35;103810.75;;;8.50;72.57
59104;BME280;51449;51.676;5.812;2023-02-12T06:51:56;103817.34;;;8.49;72.56
59104;BME280;51449;51.676;5.812;2023-02-12T06:54:18;103813.75;;;8.49;72.44
59104;BME280;51449;51.676;5.812;2023-02-12T06:56:39;103820.09;;;8.49;72.82
59104;BME280;51449;51.676;5.812;2023-02-12T06:59:01;103819.25;;;8.49;72.61
59104;BME280;51449;51.676;5.812;2023-02-12T07:01:25;103822.84;;;8.49;73.00
59104;BME280;51449;51.676;5.812;2023-02-12T07:04:08;103831.91;;;8.50;72.86
59104;BME280;51449;51.676;5.812;2023-02-12T07:06:33;103831.06;;;8.49;72.60
59104;BME280;51449;51.676;5.812;2023-02-12T07:08:56;103828.31;;;8.49;72.99
59104;BME280;51449;51.676;5.812;2023-02-12T07:11:24;103839.06;;;8.51;72.87
59104;BME280;51449;51.676;5.812;2023-02-12T07:13:47;103832.72;;;8.50;72.91
59104;BME280;51449;51.676;5.812;2023-02-12T07:16:11;103834.41;;;8.51;73.05
59104;BME280;51449;51.676;5.812;2023-02-12T07:18:36;103828.94;;;8.51;72.75
59104;BME280;51449;51.676;5.812;2023-02-12T07:20:57;103837.16;;;8.51;72.73
59104;BME280;51449;51.676;5.812;2023-02-12T07:23:19;103833.56;;;8.51;73.10
59104;BME280;51449;51.676;5.812;2023-02-12T07:25:41;103838.81;;;8.52;72.87
59104;BME280;51449;51.676;5.812;2023-02-12T07:28:03;103840.50;;;8.53;73.08
59104;BME280;51449;51.676;5.812;2023-02-12T07:30:25;103834.16;;;8.53;73.08
59104;BME280;51449;51.676;5.812;2023-02-12T07:32:46;103836.66;;;8.54;73.17
59104;BME280;51449;51.676;5.812;2023-02-12T07:35:08;103841.06;;;8.55;73.11
59104;BME280;51449;51.676;5.812;2023-02-12T07:37:29;103843.81;;;8.55;73.24
59104;BME280;51449;51.676;5.812;2023-02-12T07:39:51;103842.75;;;8.56;72.88
59104;BME280;51449;51.676;5.812;2023-02-12T07:42:13;103848.50;;;8.55;72.79
59104;BME280;51449;51.676;5.812;2023-02-12T07:44:41;103850.41;;;8.54;73.12
59104;BME280;51449;51.676;5.812;2023-02-12T07:47:03;103853.97;;;8.55;73.07
59104;BME280;51449;51.676;5.812;2023-02-12T07:49:26;103853.75;;;8.56;72.88
59104;BME280;51449;51.676;5.812;2023-02-12T07:51:48;103858.41;;;8.56;73.01
59104;BME280;51449;51.676;5.812;2023-02-12T07:54:11;103851.00;;;8.56;73.05
59104;BME280;51449;51.676;5.812;2023-02-12T07:56:35;103856.22;;;8.58;73.30
59104;BME280;51449;51.676;5.812;2023-02-12T07:59:02;103853.25;;;8.60;73.15
59104;BME280;51449;51.676;5.812;2023-02-12T08:01:28;103851.09;;;8.62;73.16
59104;BME280;51449;51.676;5.812;2023-02-12T08:03:51;103859.06;;;8.63;73.24
59104;BME280;51449;51.676;5.812;2023-02-12T08:08:36;103851.44;;;8.65;73.11
59104;BME280;51449;51.676;5.812;2023-02-12T08:10:59;103857.78;;;8.66;73.47
59104;BME280;51449;51.676;5.812;2023-02-12T08:13:20;103859.06;;;8.63;73.37
59104;BME280;51449;51.676;5.812;2023-02-12T08:15:42;103864.56;;;8.63;73.24
59104;BME280;51449;51.676;5.812;2023-02-12T08:18:04;103866.03;;;8.66;73.01
59104;BME280;51449;51.676;5.812;2023-02-12T08:20:26;103871.25;;;8.67;73.30
59104;BME280;51449;51.676;5.812;2023-02-12T08:22:47;103878.19;;;8.70;73.33
59104;BME280;51449;51.676;5.812;2023-02-12T08:25:09;103867.53;;;8.73;73.17
59104;BME280;51449;51.676;5.812;2023-02-12T08:27:31;103875.78;;;8.73;73.16
59104;BME280;51449;51.676;5.812;2023-02-12T08:29:52;103869.44;;;8.73;72.97
59104;BME280;51449;51.676;5.812;2023-02-12T08:32:14;103879.38;;;8.74;73.15
59104;BME280;51449;51.676;5.812;2023-02-12T08:34:37;103881.63;;;8.77;73.43
59104;BME280;51449;51.676;5.812;2023-02-12T08:36:59;103886.59;;;8.80;73.43
59104;BME280;51449;51.676;5.812;2023-02-12T08:39:22;103887.78;;;8.84;73.20
59104;BME280;51449;51.676;5.812;2023-02-12T08:41:46;103891.13;;;8.86;73.27
59104;BME280;51449;51.676;5.812;2023-02-12T08:44:08;103886.22;;;8.88;73.59
59104;BME280;51449;51.676;5.812;2023-02-12T08:46:33;103886.81;;;8.90;73.47
59104;BME280;51449;51.676;5.812;2023-02-12T08:48:59;103890.13;;;8.92;73.30
59104;BME280;51449;51.676;5.812;2023-02-12T08:51:27;103895.63;;;8.92;73.56
59104;BME280;51449;51.676;5.812;2023-02-12T08:53:54;103885.50;;;8.93;73.15
59104;BME280;51449;51.676;5.812;2023-02-12T08:56:17;103891.31;;;8.96;73.14
59104;BME280;51449;51.676;5.812;2023-02-12T08:58:40;103896.31;;;8.99;73.03
59104;BME280;51449;51.676;5.812;2023-02-12T09:01:03;103893.69;;;9.05;73.31
59104;BME280;51449;51.676;5.812;2023-02-12T09:03:29;103890.44;;;9.08;72.93
59104;BME280;51449;51.676;5.812;2023-02-12T09:05:51;103895.19;;;9.12;72.97
59104;BME280;51449;51.676;5.812;2023-02-12T09:08:14;103897.94;;;9.12;72.60
59104;BME280;51449;51.676;5.812;2023-02-12T09:10:42;103899.84;;;9.12;72.73
59104;BME280;51449;51.676;5.812;2023-02-12T09:13:03;103904.00;;;9.14;72.75
59104;BME280;51449;51.676;5.812;2023-02-12T09:15:26;103907.09;;;9.18;72.93
59104;BME280;51449;51.676;5.812;2023-02-12T09:17:48;103905.53;;;9.22;72.72
59104;BME280;51449;51.676;5.812;2023-02-12T09:20:10;103906.69;;;9.26;72.86
59104;BME280;51449;51.676;5.812;2023-02-12T09:22:32;103908.69;;;9.31;72.60
59104;BME280;51449;51.676;5.812;2023-02-12T09:24:53;103913.69;;;9.34;72.97
59104;BME280;51449;51.676;5.812;2023-02-12T09:27:15;103912.13;;;9.38;72.63
59104;BME280;51449;51.676;5.812;2023-02-12T09:29:37;103918.44;;;9.38;72.31
59104;BME280;51449;51.676;5.812;2023-02-12T09:31:58;103916.56;;;9.39;72.23
59104;BME280;51449;51.676;5.812;2023-02-12T09:34:21;103913.53;;;9.40;72.26
59104;BME280;51449;51.676;5.812;2023-02-12T09:36:43;103920.47;;;9.43;72.03
59104;BME280;51449;51.676;5.812;2023-02-12T09:39:05;103918.66;;;9.49;72.17
59104;BME280;51449;51.676;5.812;2023-02-12T09:41:58;103912.38;;;9.53;72.26
59104;BME280;51449;51.676;5.812;2023-02-12T09:50:23;103912.03;;;9.67;71.97
59104;BME280;51449;51.676;5.812;2023-02-12T09:53:00;103908.78;;;9.70;72.22
59104;BME280;51449;51.676;5.812;2023-02-12T09:55:26;103911.88;;;9.73;72.16
59104;BME280;51449;51.676;5.812;2023-02-12T09:57:51;103908.25;;;9.73;71.81
59104;BME280;51449;51.676;5.812;2023-02-12T10:00:27;103901.69;;;9.74;71.38
59104;BME280;51449;51.676;5.812;2023-02-12T10:02:52;103913.53;;;9.74;71.43
59104;BME280;51449;51.676;5.812;2023-02-12T10:05:16;103919.28;;;9.73;71.56
59104;BME280;51449;51.676;5.812;2023-02-12T10:11:29;103914.44;;;9.80;71.68
59104;BME280;51449;51.676;5.812;2023-02-12T10:25:58;103910.91;;;9.84;71.19
59104;BME280;51449;51.676;5.812;2023-02-12T10:28:34;103907.59;;;9.82;70.83
59104;BME280;51449;51.676;5.812;2023-02-12T10:31:03;103900.41;;;9.81;71.09
59104;BME280;51449;51.676;5.812;2023-02-12T10:33:34;103896.91;;;9.86;71.08
59104;BME280;51449;51.676;5.812;2023-02-12T10:36:16;103899.72;;;9.91;70.95
59104;BME280;51449;51.676;5.812;2023-02-12T10:38:56;103906.41;;;9.95;70.90
59104;BME280;51449;51.676;5.812;2023-02-12T10:41:23;103904.56;;;10.01;70.65
59104;BME280;51449;51.676;5.812;2023-02-12T10:43:47;103893.59;;;10.06;70.37
59104;BME280;51449;51.676;5.812;2023-02-12T10:46:14;103892.59;;;10.12;70.57
59104;BME280;51449;51.676;5.812;2023-02-12T10:48:39;103894.56;;;10.17;70.20
59104;BME280;51449;51.676;5.812;2023-02-12T10:53:32;103890.56;;;10.24;69.05
59104;BME280;51449;51.676;5.812;2023-02-12T10:56:14;103892.31;;;10.31;69.17
59104;BME280;51449;51.676;5.812;2023-02-12T10:58:57;103887.94;;;10.35;68.93
59104;BME280;51449;51.676;5.812;2023-02-12T11:01:28;103891.59;;;10.40;68.85
59104;BME280;51449;51.676;5.812;2023-02-12T11:03:56;103895.50;;;10.44;68.75
59104;BME280;51449;51.676;5.812;2023-02-12T11:06:22;103892.81;;;10.49;68.75
59104;BME280;51449;51.676;5.812;2023-02-12T11:08:49;103895.38;;;10.56;68.79
59104;BME280;51449;51.676;5.812;2023-02-12T11:13:53;103883.88;;;10.64;68.31
59104;BME280;51449;51.676;5.812;2023-02-12T11:16:34;103887.50;;;10.70;68.12
59104;BME280;51449;51.676;5.812;2023-02-12T11:19:03;103895.28;;;10.73;67.85
59104;BME280;51449;51.676;5.812;2023-02-12T11:21:27;103885.97;;;10.79;67.52
59104;BME280;51449;51.676;5.812;2023-02-12T11:23:49;103889.34;;;10.86;68.07
59104;BME280;51449;51.676;5.812;2023-02-12T11:31:23;103891.00;;;10.87;66.70
59104;BME280;51449;51.676;5.812;2023-02-12T11:34:17;103888.81;;;10.89;66.68
59104;BME280;51449;51.676;5.812;2023-02-12T11:36:45;103883.06;;;10.91;65.98
59104;BME280;51449;51.676;5.812;2023-02-12T11:39:28;103884.22;;;10.95;65.62
59104;BME280;51449;51.676;5.812;2023-02-12T11:42:02;103875.66;;;10.97;65.03
59104;BME280;51449;51.676;5.812;2023-02-12T11:44:36;103879.81;;;10.99;64.68
59104;BME280;51449;51.676;5.812;2023-02-12T11:47:09;103877.38;;;11.03;64.56
59104;BME280;51449;51.676;5.812;2023-02-12T11:49:43;103872.16;;;11.06;64.53
59104;BME280;51449;51.676;5.812;2023-02-12T11:52:19;103864.44;;;11.08;64.44
59104;BME280;51449;51.676;5.812;2023-02-12T11:54:45;103866.69;;;11.11;64.75
59104;BME280;51449;51.676;5.812;2023-02-12T11:57:37;103859.00;;;11.19;64.78
59104;BME280;51449;51.676;5.812;2023-02-12T12:02:54;103859.94;;;11.29;63.92
59104;BME280;51449;51.676;5.812;2023-02-12T12:05:42;103861.03;;;11.28;64.23
59104;BME280;51449;51.676;5.812;2023-02-12T12:08:25;103859.38;;;11.27;63.39
59104;BME280;51449;51.676;5.812;2023-02-12T12:11:11;103851.88;;;11.23;63.01
59104;BME280;51449;51.676;5.812;2023-02-12T12:14:01;103858.75;;;11.20;63.03
59104;BME280;51449;51.676;5.812;2023-02-12T12:16:36;103854.88;;;11.21;63.18
59104;BME280;51449;51.676;5.812;2023-02-12T12:19:38;103848.00;;;11.24;63.53
59104;BME280;51449;51.676;5.812;2023-02-12T12:24:44;103844.22;;;11.30;63.64
59104;BME280;51449;51.676;5.812;2023-02-12T12:27:20;103847.50;;;11.27;63.00
59104;BME280;51449;51.676;5.812;2023-02-12T12:30:22;103843.03;;;11.21;62.25
59104;BME280;51449;51.676;5.812;2023-02-12T12:32:58;103836.66;;;11.15;62.04
59104;BME280;51449;51.676;5.812;2023-02-12T12:35:44;103833.81;;;11.05;62.56
59104;BME280;51449;51.676;5.812;2023-02-12T12:38:40;103839.56;;;11.03;62.98
59104;BME280;51449;51.676;5.812;2023-02-12T12:44:11;103828.00;;;11.06;62.98
59104;BME280;51449;51.676;5.812;2023-02-12T12:49:50;103825.78;;;11.03;61.94
59104;BME280;51449;51.676;5.812;2023-02-12T13:04:13;103817.13;;;10.95;62.33
59104;BME280;51449;51.676;5.812;2023-02-12T13:09:38;103803.38;;;11.00;62.71
59104;BME280;51449;51.676;5.812;2023-02-12T13:12:32;103804.81;;;11.02;62.66
59104;BME280;51449;51.676;5.812;2023-02-12T13:20:45;103796.00;;;11.05;62.30
59104;BME280;51449;51.676;5.812;2023-02-12T13:23:28;103795.72;;;11.07;61.92
59104;BME280;51449;51.676;5.812;2023-02-12T13:26:02;103800.69;;;11.05;61.97
59104;BME280;51449;51.676;5.812;2023-02-12T13:28:49;103802.91;;;11.08;62.47
59104;BME280;51449;51.676;5.812;2023-02-12T13:31:21;103788.59;;;11.11;62.43
59104;BME280;51449;51.676;5.812;2023-02-12T13:33:57;103785.03;;;11.16;61.99
59104;BME280;51449;51.676;5.812;2023-02-12T13:36:23;103789.41;;;11.11;62.17
59104;BME280;51449;51.676;5.812;2023-02-12T13:41:32;103788.59;;;11.11;62.21
59104;BME280;51449;51.676;5.812;2023-02-12T13:44:18;103779.75;;;11.09;61.63
59104;BME280;51449;51.676;5.812;2023-02-12T13:49:46;103787.91;;;10.93;61.60
59104;BME280;51449;51.676;5.812;2023-02-12T13:52:24;103790.63;;;10.88;62.02
59104;BME280;51449;51.676;5.812;2023-02-12T14:03:14;103782.50;;;10.77;62.43
59104;BME280;51449;51.676;5.812;2023-02-12T14:05:36;103782.50;;;10.77;62.48
59104;BME280;51449;51.676;5.812;2023-02-12T14:08:00;103783.34;;;10.77;62.16
59104;BME280;51449;51.676;5.812;2023-02-12T14:10:27;103778.66;;;10.78;62.71
59104;BME280;51449;51.676;5.812;2023-02-12T14:12:54;103775.38;;;10.81;63.02
59104;BME280;51449;51.676;5.812;2023-02-12T14:15:32;103774.81;;;10.79;62.92
59104;BME280;51449;51.676;5.812;2023-02-12T14:18:05;103776.72;;;10.73;63.12
59104;BME280;51449;51.676;5.812;2023-02-12T14:20:43;103773.84;;;10.63;63.01
59104;BME280;51449;51.676;5.812;2023-02-12T14:23:26;103776.28;;;10.59;63.28
59104;BME280;51449;51.676;5.812;2023-02-12T14:26:07;103762.47;;;10.54;63.75
59104;BME280;51449;51.676;5.812;2023-02-12T14:31:31;103775.38;;;10.48;63.92
59104;BME280;51449;51.676;5.812;2023-02-12T14:36:36;103779.22;;;10.47;64.10
59104;BME280;51449;51.676;5.812;2023-02-12T14:41:44;103767.31;;;10.42;64.44
59104;BME280;51449;51.676;5.812;2023-02-12T14:46:44;103768.72;;;10.44;64.62
59104;BME280;51449;51.676;5.812;2023-02-12T14:49:17;103761.03;;;10.46;64.77
59104;BME280;51449;51.676;5.812;2023-02-12T14:52:36;103771.19;;;10.46;64.58
59104;BME280;51449;51.676;5.812;2023-02-12T14:54:55;103762.03;;;10.40;64.52
59104;BME280;51449;51.676;5.812;2023-02-12T14:57:28;103772.25;;;10.40;64.72
59104;BME280;51449;51.676;5.812;2023-02-12T15:02:38;103763.97;;;10.40;64.91